createdAt,value
2022-12-13T00:00:23.187Z,32.65
2022-12-13T00:05:25.806Z,19.92
2022-12-13T00:10:28.673Z,24.52
2022-12-13T00:15:31.364Z,14.68
2022-12-13T00:20:33.890Z,24.85
2022-12-13T00:25:36.513Z,22.75
2022-12-13T00:30:40.142Z,21.77
2022-12-13T00:35:42.974Z,20.60
2022-12-13T00:40:45.752Z,20.83
2022-12-13T00:45:48.880Z,22.83
2022-12-13T00:50:51.521Z,19.33
2022-12-13T00:55:54.416Z,19.92
2022-12-13T01:01:12.504Z,22.10
2022-12-13T01:06:18.885Z,17.27
2022-12-13T01:11:21.742Z,17.10
2022-12-13T01:16:24.790Z,16.88
2022-12-13T01:21:27.433Z,16.52
2022-12-13T01:26:33.177Z,19.58
2022-12-13T01:31:41.412Z,17.80
2022-12-13T01:36:45.413Z,10.25
2022-12-13T01:41:51.298Z,13.45
2022-12-13T01:46:54.077Z,18.77
2022-12-13T01:57:05.299Z,10.80
2022-12-13T02:02:10.070Z,15.20
2022-12-13T02:07:22.854Z,17.13
2022-12-13T02:12:32.304Z,18.20
2022-12-13T02:17:35.004Z,16.60
2022-12-13T02:23:12.996Z,15.32
2022-12-13T02:28:47.127Z,16.65
2022-12-13T02:33:56.989Z,19.77
2022-12-13T02:39:13.558Z,25.40
2022-12-13T02:44:22.731Z,32.17
2022-12-13T02:49:28.441Z,22.35
2022-12-13T02:54:31.399Z,14.05
2022-12-13T02:59:36.921Z,20.50
2022-12-13T03:05:08.616Z,14.68
2022-12-13T03:10:22.227Z,10.20
2022-12-13T03:15:44.093Z,16.50
2022-12-13T03:20:52.158Z,27.88
2022-12-13T03:26:11.782Z,26.45
2022-12-13T03:31:14.469Z,17.25
2022-12-13T03:36:19.022Z,14.50
2022-12-13T03:41:24.524Z,15.10
2022-12-13T03:46:27.298Z,12.60
2022-12-13T03:51:29.947Z,20.65
2022-12-13T03:56:32.522Z,17.67
2022-12-13T04:01:35.239Z,18.63
2022-12-13T04:06:56.164Z,12.82
2022-12-13T04:12:17.791Z,12.95
2022-12-13T04:17:20.560Z,13.13
2022-12-13T04:22:24.965Z,11.27
2022-12-13T04:32:30.605Z,6.78
2022-12-13T04:37:33.188Z,11.77
2022-12-13T04:42:35.774Z,19.25
2022-12-13T04:47:38.306Z,9.65
2022-12-13T04:52:40.882Z,19.77
2022-12-13T04:57:43.507Z,22.40
2022-12-13T05:02:46.108Z,24.55
2022-12-13T05:07:49.288Z,20.27
2022-12-13T05:12:52.012Z,19.55
2022-12-13T05:17:54.583Z,22.23
2022-12-13T05:22:57.726Z,23.83
2022-12-13T05:28:00.482Z,22.83
2022-12-13T05:33:12.169Z,19.25
2022-12-13T05:38:14.861Z,25.88
2022-12-13T05:43:22.279Z,21.35
2022-12-13T05:48:25.128Z,14.98
2022-12-13T05:53:30.547Z,19.58
2022-12-13T05:58:35.898Z,18.20
2022-12-13T06:03:40.083Z,23.10
2022-12-13T06:08:42.941Z,32.72
2022-12-13T06:13:50.735Z,21.33
2022-12-13T06:19:03.377Z,20.38
2022-12-13T06:24:08.764Z,17.27
2022-12-13T06:29:12.160Z,20.13
2022-12-13T06:34:15.491Z,21.98
2022-12-13T06:39:18.458Z,27.75
2022-12-13T06:44:21.148Z,22.40
2022-12-13T06:49:23.703Z,14.35
2022-12-13T06:54:35.462Z,29.80
2022-12-13T06:59:38.182Z,23.27
2022-12-13T07:04:41.184Z,20.52
2022-12-13T07:09:44.321Z,12.60
2022-12-13T07:14:47.238Z,15.05
2022-12-13T07:19:49.935Z,34.03
2022-12-13T07:24:52.919Z,28.20
2022-12-13T07:29:55.685Z,29.23
2022-12-13T07:34:58.292Z,17.42
2022-12-13T07:40:04.637Z,27.23
2022-12-13T07:45:07.938Z,29.30
2022-12-13T07:50:24.346Z,26.27
2022-12-13T07:55:33.086Z,36.83
2022-12-13T08:00:39.006Z,18.27
2022-12-13T08:05:41.797Z,30.52
2022-12-13T08:10:45.528Z,26.65
2022-12-13T08:15:48.221Z,32.47
2022-12-13T08:20:51.003Z,33.63
2022-12-13T08:25:54.280Z,30.17
2022-12-13T08:31:03.852Z,52.00
2022-12-13T08:36:15.789Z,60.38
2022-12-13T08:41:18.522Z,55.22
2022-12-13T08:46:21.579Z,58.70
2022-12-13T08:51:27.323Z,69.50
2022-12-13T08:56:35.056Z,78.63
2022-12-13T09:01:37.581Z,80.47
2022-12-13T09:06:43.358Z,87.32
2022-12-13T09:11:45.874Z,107.57
2022-12-13T09:16:50.841Z,116.47
2022-12-13T09:22:02.714Z,136.13
2022-12-13T09:27:09.472Z,153.63
2022-12-13T09:32:12.605Z,177.77
2022-12-13T09:37:15.354Z,207.52
2022-12-13T09:42:30.529Z,267.65
2022-12-13T09:47:46.787Z,298.70
2022-12-13T09:52:50.310Z,341.33
2022-12-13T09:57:54.785Z,371.23
2022-12-13T10:02:58.384Z,443.48
2022-12-13T10:08:06.317Z,460.95
2022-12-13T10:13:27.504Z,471.65
2022-12-13T10:18:35.598Z,485.10
2022-12-13T10:24:15.240Z,455.88
2022-12-13T10:29:05.149Z,510.08
2022-12-13T10:34:23.537Z,538.58
2022-12-13T10:39:43.030Z,511.90
2022-12-13T10:44:47.448Z,562.78
2022-12-13T10:49:59.083Z,586.92
2022-12-13T10:55:23.681Z,575.67
2022-12-13T11:05:38.582Z,573.70
2022-12-13T11:10:41.775Z,599.05
2022-12-13T11:15:44.563Z,562.80
2022-12-13T11:21:00.976Z,559.15
2022-12-13T11:26:10.833Z,576.13
2022-12-13T11:31:35.641Z,553.10
2022-12-13T11:37:00.171Z,504.17
2022-12-13T11:42:43.950Z,537.35
2022-12-13T11:48:10.621Z,479.08
2022-12-13T11:53:19.274Z,514.58
2022-12-13T11:59:03.204Z,499.42
2022-12-13T12:04:20.284Z,513.15
2022-12-13T12:09:26.309Z,489.75
2022-12-13T12:14:36.024Z,521.58
2022-12-13T12:19:42.077Z,522.00
2022-12-13T12:25:04.075Z,478.83
2022-12-13T12:30:09.870Z,498.60
2022-12-13T12:35:50.345Z,499.33
2022-12-13T12:41:16.236Z,476.00
2022-12-13T12:46:47.161Z,490.38
2022-12-13T12:52:25.802Z,474.83
2022-12-13T12:57:39.549Z,417.70
2022-12-13T13:03:22.847Z,407.05
2022-12-13T13:08:31.155Z,387.45
2022-12-13T13:13:40.537Z,385.52
2022-12-13T13:18:51.484Z,360.30
2022-12-13T13:24:07.493Z,365.25
2022-12-13T13:29:27.512Z,348.08
2022-12-13T13:34:36.009Z,316.50
2022-12-13T13:40:12.186Z,333.85
2022-12-13T13:45:23.719Z,343.65
2022-12-13T13:50:34.942Z,328.90
2022-12-13T13:55:49.890Z,303.35
2022-12-13T14:01:08.958Z,331.20
2022-12-13T14:06:20.612Z,283.48
2022-12-13T14:11:57.620Z,284.52
2022-12-13T14:17:25.208Z,278.10
2022-12-13T14:22:46.805Z,306.98
2022-12-13T14:27:55.131Z,324.00
2022-12-13T14:32:58.789Z,293.15
2022-12-13T14:38:03.900Z,288.75
2022-12-13T14:43:06.611Z,278.60
2022-12-13T14:48:14.556Z,248.80
2022-12-13T14:53:39.229Z,242.57
2022-12-13T15:04:16.414Z,254.55
2022-12-13T15:09:19.281Z,255.63
2022-12-13T15:14:24.188Z,253.40
2022-12-13T15:19:32.086Z,245.38
2022-12-13T15:24:48.847Z,261.42
2022-12-13T15:30:03.424Z,184.07
2022-12-13T15:35:17.093Z,245.48
2022-12-13T15:40:19.729Z,215.57
2022-12-13T15:45:33.157Z,228.40
2022-12-13T15:50:45.370Z,195.82
2022-12-13T15:55:49.850Z,193.65
2022-12-13T16:00:52.435Z,210.35
2022-12-13T16:05:57.243Z,185.60
2022-12-13T16:16:28.816Z,198.48
2022-12-13T16:21:31.544Z,186.07
2022-12-13T16:26:35.201Z,121.25
2022-12-13T16:31:38.010Z,177.20
2022-12-13T16:36:41.076Z,166.68
2022-12-13T16:41:45.988Z,154.18
2022-12-13T16:47:12.236Z,141.25
2022-12-13T16:52:11.257Z,137.27
2022-12-13T16:57:13.871Z,129.27
2022-12-13T17:02:18.075Z,112.43
2022-12-13T17:07:20.777Z,110.30
2022-12-13T17:12:26.140Z,144.23
2022-12-13T17:17:29.419Z,105.15
2022-12-13T17:22:32.331Z,98.90
2022-12-13T17:27:35.121Z,114.80
2022-12-13T17:32:37.651Z,113.47
2022-12-13T17:37:40.323Z,118.43
2022-12-13T17:42:42.911Z,120.65
2022-12-13T17:47:46.647Z,130.23
2022-12-13T17:52:49.200Z,101.13
2022-12-13T17:57:51.949Z,83.45
2022-12-13T18:02:56.626Z,102.95
2022-12-13T18:08:01.344Z,112.90
2022-12-13T18:18:12.273Z,103.10
2022-12-13T18:23:15.597Z,117.45
2022-12-13T18:28:20.810Z,111.82
2022-12-13T18:33:24.206Z,84.65
2022-12-13T18:38:32.951Z,88.57
2022-12-13T18:43:39.758Z,84.28
2022-12-13T18:48:42.581Z,101.82
2022-12-13T18:53:45.138Z,101.30
2022-12-13T18:58:48.801Z,91.65
2022-12-13T19:03:51.476Z,82.17
2022-12-13T19:08:56.468Z,90.70
2022-12-13T19:13:59.547Z,70.07
2022-12-13T19:19:02.583Z,95.65
2022-12-13T19:24:07.602Z,97.75
2022-12-13T19:29:12.042Z,102.78
2022-12-13T19:34:14.690Z,98.28
2022-12-13T19:39:17.534Z,92.47
2022-12-13T19:44:20.218Z,90.03
2022-12-13T19:49:22.931Z,90.05
2022-12-13T19:54:26.032Z,86.25
2022-12-13T19:59:28.726Z,72.53
2022-12-13T20:04:34.247Z,77.60
2022-12-13T20:09:41.806Z,58.80
2022-12-13T20:14:44.574Z,47.22
2022-12-13T20:19:47.250Z,74.95
2022-12-13T20:24:50.821Z,100.25
2022-12-13T20:29:53.600Z,112.18
2022-12-13T20:34:56.227Z,107.72
2022-12-13T20:40:00.902Z,106.63
2022-12-13T20:45:04.490Z,96.27
2022-12-13T20:50:10.373Z,119.63
2022-12-13T20:55:14.065Z,123.15
2022-12-13T21:00:17.535Z,95.20
2022-12-13T21:05:20.994Z,115.28
2022-12-13T21:10:23.683Z,85.40
2022-12-13T21:15:26.228Z,109.07
2022-12-13T21:20:28.942Z,98.43
2022-12-13T21:25:31.634Z,110.20
2022-12-13T21:30:34.317Z,100.60
2022-12-13T21:35:36.830Z,104.25
2022-12-13T21:40:45.193Z,111.15
2022-12-13T21:45:49.903Z,96.95
2022-12-13T21:56:15.265Z,100.90
2022-12-13T22:01:17.881Z,90.82
2022-12-13T22:06:20.479Z,104.35
2022-12-13T22:11:23.099Z,104.30
2022-12-13T22:16:26.421Z,93.07
2022-12-13T22:21:29.298Z,91.72
2022-12-13T22:26:31.846Z,93.35
2022-12-13T22:31:34.514Z,106.57
2022-12-13T22:36:37.308Z,90.90
2022-12-13T22:41:39.953Z,102.50
2022-12-13T22:46:42.665Z,78.30
2022-12-13T22:51:46.695Z,109.50
2022-12-13T22:56:50.354Z,92.90
2022-12-13T23:02:01.363Z,108.55
2022-12-13T23:07:04.855Z,83.32
2022-12-13T23:12:25.927Z,102.80
2022-12-13T23:17:28.514Z,100.32
2022-12-13T23:22:32.237Z,115.88
2022-12-13T23:27:34.839Z,91.07
2022-12-13T23:32:37.439Z,93.35
2022-12-13T23:37:40.094Z,92.72
2022-12-13T23:42:42.688Z,107.03
2022-12-13T23:47:45.263Z,111.30
2022-12-13T23:52:48.383Z,89.93
2022-12-13T23:58:09.220Z,93.55
